sensor_id;sensor_type;location;lat;lon;timestamp;temperature;humidity
53776;DHT22;44276;49.534;6.378;2022-10-17T00:01:09;13.80;99.90
53776;DHT22;44276;49.534;6.378;2022-10-17T00:03:39;13.90;99.90
53776;DHT22;44276;49.534;6.378;2022-10-17T00:06:09;13.80;99.90
53776;DHT22;44276;49.534;6.378;2022-10-17T00:08:42;13.80;99.90
53776;DHT22;44276;49.534;6.378;2022-10-17T00:11:14;13.70;99.90
53776;DHT22;44276;49.534;6.378;2022-10-17T00:13:45;13.70;99.90
53776;DHT22;44276;49.534;6.378;2022-10-17T00:16:22;13.80;99.90
53776;DHT22;44276;49.534;6.378;2022-10-17T00:18:51;13.90;99.90
53776;DHT22;44276;49.534;6.378;2022-10-17T00:21:20;13.80;99.90
53776;DHT22;44276;49.534;6.378;2022-10-17T00:23:51;13.80;99.90
53776;DHT22;44276;49.534;6.378;2022-10-17T00:26:20;13.80;99.90
53776;DHT22;44276;49.534;6.378;2022-10-17T00:28:50;13.70;99.90
53776;DHT22;44276;49.534;6.378;2022-10-17T00:31:21;13.60;99.90
53776;DHT22;44276;49.534;6.378;2022-10-17T00:33:51;13.50;99.90
53776;DHT22;44276;49.534;6.378;2022-10-17T00:36:22;13.40;99.90
53776;DHT22;44276;49.534;6.378;2022-10-17T00:38:54;13.30;99.90
53776;DHT22;44276;49.534;6.378;2022-10-17T00:41:26;13.30;99.90
53776;DHT22;44276;49.534;6.378;2022-10-17T00:43:58;13.20;99.90
53776;DHT22;44276;49.534;6.378;2022-10-17T00:46:29;13.20;99.90
53776;DHT22;44276;49.534;6.378;2022-10-17T00:49:02;13.20;99.90
53776;DHT22;44276;49.534;6.378;2022-10-17T00:51:37;13.20;99.90
53776;DHT22;44276;49.534;6.378;2022-10-17T00:54:13;13.20;99.90
53776;DHT22;44276;49.534;6.378;2022-10-17T00:56:43;13.30;99.90
53776;DHT22;44276;49.534;6.378;2022-10-17T00:59:15;13.30;99.90
53776;DHT22;44276;49.534;6.378;2022-10-17T01:01:50;13.20;99.90
53776;DHT22;44276;49.534;6.378;2022-10-17T01:04:23;13.20;99.90
53776;DHT22;44276;49.534;6.378;2022-10-17T01:06:51;13.10;99.90
53776;DHT22;44276;49.534;6.378;2022-10-17T01:09:21;13.20;99.90
53776;DHT22;44276;49.534;6.378;2022-10-17T01:11:54;13.20;99.90
53776;DHT22;44276;49.534;6.378;2022-10-17T01:14:31;13.40;99.90
53776;DHT22;44276;49.534;6.378;2022-10-17T01:17:14;13.40;99.90
53776;DHT22;44276;49.534;6.378;2022-10-17T01:20:04;13.40;99.90
53776;DHT22;44276;49.534;6.378;2022-10-17T01:22:50;13.40;99.90
53776;DHT22;44276;49.534;6.378;2022-10-17T01:25:41;13.30;99.90
53776;DHT22;44276;49.534;6.378;2022-10-17T01:28:36;13.00;99.90
53776;DHT22;44276;49.534;6.378;2022-10-17T01:31:25;13.00;99.90
53776;DHT22;44276;49.534;6.378;2022-10-17T01:34:03;12.90;99.90
53776;DHT22;44276;49.534;6.378;2022-10-17T01:36:47;12.80;99.90
53776;DHT22;44276;49.534;6.378;2022-10-17T01:39:23;13.10;99.90
53776;DHT22;44276;49.534;6.378;2022-10-17T01:42:12;12.90;99.90
53776;DHT22;44276;49.534;6.378;2022-10-17T01:44:48;12.80;99.90
53776;DHT22;44276;49.534;6.378;2022-10-17T01:47:25;12.90;99.90
53776;DHT22;44276;49.534;6.378;2022-10-17T01:49:59;12.90;99.90
53776;DHT22;44276;49.534;6.378;2022-10-17T01:52:34;12.70;99.90
53776;DHT22;44276;49.534;6.378;2022-10-17T01:55:10;12.70;99.90
53776;DHT22;44276;49.534;6.378;2022-10-17T01:57:46;12.60;99.90
53776;DHT22;44276;49.534;6.378;2022-10-17T02:00:21;12.60;99.90
53776;DHT22;44276;49.534;6.378;2022-10-17T02:02:56;12.50;99.90
53776;DHT22;44276;49.534;6.378;2022-10-17T02:05:30;12.80;99.90
53776;DHT22;44276;49.534;6.378;2022-10-17T02:08:02;12.80;99.90
53776;DHT22;44276;49.534;6.378;2022-10-17T02:10:39;13.00;99.90
53776;DHT22;44276;49.534;6.378;2022-10-17T02:13:19;13.20;99.90
53776;DHT22;44276;49.534;6.378;2022-10-17T02:16:10;13.20;99.90
53776;DHT22;44276;49.534;6.378;2022-10-17T02:19:06;13.20;99.90
53776;DHT22;44276;49.534;6.378;2022-10-17T02:21:52;12.90;99.90
53776;DHT22;44276;49.534;6.378;2022-10-17T02:24:39;12.80;99.90
53776;DHT22;44276;49.534;6.378;2022-10-17T02:27:19;12.60;99.90
53776;DHT22;44276;49.534;6.378;2022-10-17T02:29:59;12.60;99.90
53776;DHT22;44276;49.534;6.378;2022-10-17T02:32:35;12.50;99.90
53776;DHT22;44276;49.534;6.378;2022-10-17T02:35:17;12.50;99.90
53776;DHT22;44276;49.534;6.378;2022-10-17T02:37:47;12.80;99.90
53776;DHT22;44276;49.534;6.378;2022-10-17T02:40:20;12.90;99.90
53776;DHT22;44276;49.534;6.378;2022-10-17T02:42:52;13.00;99.90
53776;DHT22;44276;49.534;6.378;2022-10-17T02:45:24;13.10;99.90
53776;DHT22;44276;49.534;6.378;2022-10-17T02:47:58;12.90;99.90
53776;DHT22;44276;49.534;6.378;2022-10-17T02:50:41;12.80;99.90
53776;DHT22;44276;49.534;6.378;2022-10-17T02:53:25;12.60;99.90
53776;DHT22;44276;49.534;6.378;2022-10-17T02:56:01;12.50;99.90
53776;DHT22;44276;49.534;6.378;2022-10-17T02:58:36;12.40;99.90
53776;DHT22;44276;49.534;6.378;2022-10-17T03:01:06;12.40;99.90
53776;DHT22;44276;49.534;6.378;2022-10-17T03:03:34;12.30;99.90
53776;DHT22;44276;49.534;6.378;2022-10-17T03:06:04;12.50;99.90
53776;DHT22;44276;49.534;6.378;2022-10-17T03:08:32;12.60;99.90
53776;DHT22;44276;49.534;6.378;2022-10-17T03:11:00;12.60;99.90
53776;DHT22;44276;49.534;6.378;2022-10-17T03:13:29;12.50;99.90
53776;DHT22;44276;49.534;6.378;2022-10-17T03:16:03;12.30;99.90
53776;DHT22;44276;49.534;6.378;2022-10-17T03:18:31;12.10;99.90
53776;DHT22;44276;49.534;6.378;2022-10-17T03:21:00;12.00;99.90
53776;DHT22;44276;49.534;6.378;2022-10-17T03:23:29;11.90;99.90
53776;DHT22;44276;49.534;6.378;2022-10-17T03:25:57;11.90;99.90
53776;DHT22;44276;49.534;6.378;2022-10-17T03:28:29;12.20;99.90
53776;DHT22;44276;49.534;6.378;2022-10-17T03:30:57;12.30;99.90
53776;DHT22;44276;49.534;6.378;2022-10-17T03:33:26;12.30;99.90
53776;DHT22;44276;49.534;6.378;2022-10-17T03:35:54;12.30;99.90
53776;DHT22;44276;49.534;6.378;2022-10-17T03:38:22;12.50;99.90
53776;DHT22;44276;49.534;6.378;2022-10-17T03:40:55;12.80;99.90
53776;DHT22;44276;49.534;6.378;2022-10-17T03:43:23;12.70;99.90
53776;DHT22;44276;49.534;6.378;2022-10-17T03:45:51;12.60;99.90
53776;DHT22;44276;49.534;6.378;2022-10-17T03:48:19;12.50;99.90
53776;DHT22;44276;49.534;6.378;2022-10-17T03:50:48;12.40;99.90
53776;DHT22;44276;49.534;6.378;2022-10-17T03:53:16;12.30;99.90
53776;DHT22;44276;49.534;6.378;2022-10-17T03:55:44;12.30;99.90
53776;DHT22;44276;49.534;6.378;2022-10-17T03:58:14;12.20;99.90
53776;DHT22;44276;49.534;6.378;2022-10-17T04:00:42;12.30;99.90
53776;DHT22;44276;49.534;6.378;2022-10-17T04:03:10;12.20;99.90
53776;DHT22;44276;49.534;6.378;2022-10-17T04:05:43;12.20;99.90
53776;DHT22;44276;49.534;6.378;2022-10-17T04:08:11;12.00;99.90
53776;DHT22;44276;49.534;6.378;2022-10-17T04:10:39;11.80;99.90
53776;DHT22;44276;49.534;6.378;2022-10-17T04:13:07;11.60;99.90
53776;DHT22;44276;49.534;6.378;2022-10-17T04:15:37;11.50;99.90
53776;DHT22;44276;49.534;6.378;2022-10-17T04:18:05;11.30;99.90
53776;DHT22;44276;49.534;6.378;2022-10-17T04:20:33;11.40;99.90
53776;DHT22;44276;49.534;6.378;2022-10-17T04:23:02;11.20;99.90
53776;DHT22;44276;49.534;6.378;2022-10-17T04:25:30;11.30;99.90
53776;DHT22;44276;49.534;6.378;2022-10-17T04:28:02;11.30;99.90
53776;DHT22;44276;49.534;6.378;2022-10-17T04:30:30;11.30;99.90
53776;DHT22;44276;49.534;6.378;2022-10-17T04:33:00;11.30;99.90
53776;DHT22;44276;49.534;6.378;2022-10-17T04:35:28;11.20;99.90
53776;DHT22;44276;49.534;6.378;2022-10-17T04:37:56;11.30;99.90
53776;DHT22;44276;49.534;6.378;2022-10-17T04:40:24;11.50;99.90
53776;DHT22;44276;49.534;6.378;2022-10-17T04:42:52;11.60;99.90
53776;DHT22;44276;49.534;6.378;2022-10-17T04:45:22;11.60;99.90
53776;DHT22;44276;49.534;6.378;2022-10-17T04:47:50;11.50;99.90
53776;DHT22;44276;49.534;6.378;2022-10-17T04:50:19;11.70;99.90
53776;DHT22;44276;49.534;6.378;2022-10-17T04:52:47;11.60;99.90
53776;DHT22;44276;49.534;6.378;2022-10-17T04:55:16;11.50;99.90
53776;DHT22;44276;49.534;6.378;2022-10-17T04:57:44;11.60;99.90
53776;DHT22;44276;49.534;6.378;2022-10-17T05:00:13;11.80;99.90
53776;DHT22;44276;49.534;6.378;2022-10-17T05:02:41;11.70;99.90
53776;DHT22;44276;49.534;6.378;2022-10-17T05:05:09;11.60;99.90
53776;DHT22;44276;49.534;6.378;2022-10-17T05:07:40;11.70;99.90
53776;DHT22;44276;49.534;6.378;2022-10-17T05:10:08;11.70;99.90
53776;DHT22;44276;49.534;6.378;2022-10-17T05:12:37;11.70;99.90
53776;DHT22;44276;49.534;6.378;2022-10-17T05:15:06;11.80;99.90
53776;DHT22;44276;49.534;6.378;2022-10-17T05:17:35;11.80;99.90
53776;DHT22;44276;49.534;6.378;2022-10-17T05:20:04;11.80;99.90
53776;DHT22;44276;49.534;6.378;2022-10-17T05:22:33;11.70;99.90
53776;DHT22;44276;49.534;6.378;2022-10-17T05:25:08;11.70;99.90
53776;DHT22;44276;49.534;6.378;2022-10-17T05:27:37;11.50;99.90
53776;DHT22;44276;49.534;6.378;2022-10-17T05:30:06;11.60;99.90
53776;DHT22;44276;49.534;6.378;2022-10-17T05:32:35;11.50;99.90
53776;DHT22;44276;49.534;6.378;2022-10-17T05:35:04;11.30;99.90
53776;DHT22;44276;49.534;6.378;2022-10-17T05:37:33;11.20;99.90
53776;DHT22;44276;49.534;6.378;2022-10-17T05:40:02;11.00;99.90
53776;DHT22;44276;49.534;6.378;2022-10-17T05:42:32;11.00;99.90
53776;DHT22;44276;49.534;6.378;2022-10-17T05:45:00;10.90;99.90
53776;DHT22;44276;49.534;6.378;2022-10-17T05:47:28;10.80;99.90
53776;DHT22;44276;49.534;6.378;2022-10-17T05:49:57;10.70;99.90
53776;DHT22;44276;49.534;6.378;2022-10-17T05:52:26;10.60;99.90
53776;DHT22;44276;49.534;6.378;2022-10-17T05:54:54;10.60;99.90
53776;DHT22;44276;49.534;6.378;2022-10-17T05:57:25;10.50;99.90
53776;DHT22;44276;49.534;6.378;2022-10-17T05:59:54;10.60;99.90
53776;DHT22;44276;49.534;6.378;2022-10-17T06:02:23;10.50;99.90
53776;DHT22;44276;49.534;6.378;2022-10-17T06:04:51;10.60;99.90
53776;DHT22;44276;49.534;6.378;2022-10-17T06:07:20;10.60;99.90
53776;DHT22;44276;49.534;6.378;2022-10-17T06:09:48;10.70;99.90
53776;DHT22;44276;49.534;6.378;2022-10-17T06:12:16;10.70;99.90
53776;DHT22;44276;49.534;6.378;2022-10-17T06:14:44;10.70;99.90
53776;DHT22;44276;49.534;6.378;2022-10-17T06:17:14;10.80;99.90
53776;DHT22;44276;49.534;6.378;2022-10-17T06:19:43;11.00;99.90
53776;DHT22;44276;49.534;6.378;2022-10-17T06:22:11;11.30;99.90
53776;DHT22;44276;49.534;6.378;2022-10-17T06:24:40;11.50;99.90
53776;DHT22;44276;49.534;6.378;2022-10-17T06:27:09;11.50;99.90
53776;DHT22;44276;49.534;6.378;2022-10-17T06:29:38;11.60;99.90
53776;DHT22;44276;49.534;6.378;2022-10-17T06:32:06;11.60;99.90
53776;DHT22;44276;49.534;6.378;2022-10-17T06:34:42;11.60;99.90
53776;DHT22;44276;49.534;6.378;2022-10-17T06:37:10;11.60;99.90
53776;DHT22;44276;49.534;6.378;2022-10-17T06:39:38;11.70;99.90
53776;DHT22;44276;49.534;6.378;2022-10-17T06:42:07;11.80;99.90
53776;DHT22;44276;49.534;6.378;2022-10-17T06:44:35;11.80;99.90
53776;DHT22;44276;49.534;6.378;2022-10-17T06:47:03;11.90;99.90
53776;DHT22;44276;49.534;6.378;2022-10-17T06:49:32;12.10;99.90
53776;DHT22;44276;49.534;6.378;2022-10-17T06:52:01;12.20;99.90
53776;DHT22;44276;49.534;6.378;2022-10-17T06:54:30;12.50;99.90
53776;DHT22;44276;49.534;6.378;2022-10-17T06:56:58;12.80;99.90
53776;DHT22;44276;49.534;6.378;2022-10-17T06:59:27;13.10;99.90
53776;DHT22;44276;49.534;6.378;2022-10-17T07:01:55;13.30;99.90
53776;DHT22;44276;49.534;6.378;2022-10-17T07:04:24;13.20;99.90
53776;DHT22;44276;49.534;6.378;2022-10-17T07:06:53;13.20;99.90
53776;DHT22;44276;49.534;6.378;2022-10-17T07:09:24;13.30;99.90
53776;DHT22;44276;49.534;6.378;2022-10-17T07:11:53;13.40;99.90
53776;DHT22;44276;49.534;6.378;2022-10-17T07:14:28;13.60;99.90
53776;DHT22;44276;49.534;6.378;2022-10-17T07:16:59;13.70;99.90
53776;DHT22;44276;49.534;6.378;2022-10-17T07:19:29;14.10;99.90
53776;DHT22;44276;49.534;6.378;2022-10-17T07:21:58;14.30;99.90
53776;DHT22;44276;49.534;6.378;2022-10-17T07:24:35;14.50;99.90
53776;DHT22;44276;49.534;6.378;2022-10-17T07:27:04;14.70;99.90
53776;DHT22;44276;49.534;6.378;2022-10-17T07:29:50;14.80;99.90
53776;DHT22;44276;49.534;6.378;2022-10-17T07:32:18;15.00;99.90
53776;DHT22;44276;49.534;6.378;2022-10-17T07:34:47;15.30;99.90
53776;DHT22;44276;49.534;6.378;2022-10-17T07:37:15;15.40;99.90
53776;DHT22;44276;49.534;6.378;2022-10-17T07:39:45;15.50;99.90
53776;DHT22;44276;49.534;6.378;2022-10-17T07:42:13;15.60;99.90
53776;DHT22;44276;49.534;6.378;2022-10-17T07:44:41;15.90;99.90
53776;DHT22;44276;49.534;6.378;2022-10-17T07:47:13;16.50;99.90
53776;DHT22;44276;49.534;6.378;2022-10-17T07:49:41;17.10;99.90
53776;DHT22;44276;49.534;6.378;2022-10-17T07:52:11;17.70;99.90
53776;DHT22;44276;49.534;6.378;2022-10-17T07:54:40;18.30;99.90
53776;DHT22;44276;49.534;6.378;2022-10-17T07:57:10;18.90;99.90
53776;DHT22;44276;49.534;6.378;2022-10-17T07:59:38;19.50;99.90
53776;DHT22;44276;49.534;6.378;2022-10-17T08:02:09;20.00;99.90
53776;DHT22;44276;49.534;6.378;2022-10-17T08:04:45;20.50;99.90
53776;DHT22;44276;49.534;6.378;2022-10-17T08:07:13;20.90;99.90
53776;DHT22;44276;49.534;6.378;2022-10-17T08:09:49;21.30;97.20
53776;DHT22;44276;49.534;6.378;2022-10-17T08:12:19;21.70;82.50
53776;DHT22;44276;49.534;6.378;2022-10-17T08:14:47;21.90;71.50
53776;DHT22;44276;49.534;6.378;2022-10-17T08:17:15;22.20;68.90
53776;DHT22;44276;49.534;6.378;2022-10-17T08:19:44;22.40;62.50
53776;DHT22;44276;49.534;6.378;2022-10-17T08:22:12;22.80;57.50
53776;DHT22;44276;49.534;6.378;2022-10-17T08:24:40;22.50;55.40
53776;DHT22;44276;49.534;6.378;2022-10-17T08:27:11;22.50;54.20
53776;DHT22;44276;49.534;6.378;2022-10-17T08:29:41;22.40;52.20
53776;DHT22;44276;49.534;6.378;2022-10-17T08:32:15;22.50;55.00
53776;DHT22;44276;49.534;6.378;2022-10-17T08:34:43;22.30;52.30
53776;DHT22;44276;49.534;6.378;2022-10-17T08:37:12;22.50;48.80
53776;DHT22;44276;49.534;6.378;2022-10-17T08:39:40;22.60;51.20
53776;DHT22;44276;49.534;6.378;2022-10-17T08:42:29;23.20;46.50
53776;DHT22;44276;49.534;6.378;2022-10-17T08:45:17;23.10;46.40
53776;DHT22;44276;49.534;6.378;2022-10-17T08:47:56;23.20;44.80
53776;DHT22;44276;49.534;6.378;2022-10-17T08:50:31;23.40;45.00
53776;DHT22;44276;49.534;6.378;2022-10-17T08:53:10;23.50;43.50
53776;DHT22;44276;49.534;6.378;2022-10-17T08:55:45;23.50;43.60
53776;DHT22;44276;49.534;6.378;2022-10-17T08:58:19;23.60;41.40
53776;DHT22;44276;49.534;6.378;2022-10-17T09:01:01;23.70;41.90
53776;DHT22;44276;49.534;6.378;2022-10-17T09:03:54;23.80;43.00
53776;DHT22;44276;49.534;6.378;2022-10-17T09:06:35;23.70;42.10
53776;DHT22;44276;49.534;6.378;2022-10-17T09:09:19;23.50;41.60
53776;DHT22;44276;49.534;6.378;2022-10-17T09:12:04;23.40;42.00
53776;DHT22;44276;49.534;6.378;2022-10-17T09:15:01;23.40;42.70
53776;DHT22;44276;49.534;6.378;2022-10-17T09:17:48;23.70;41.70
53776;DHT22;44276;49.534;6.378;2022-10-17T09:20:22;24.30;39.20
53776;DHT22;44276;49.534;6.378;2022-10-17T09:22:57;24.30;37.80
53776;DHT22;44276;49.534;6.378;2022-10-17T09:25:27;24.00;39.70
53776;DHT22;44276;49.534;6.378;2022-10-17T09:28:03;24.20;39.20
53776;DHT22;44276;49.534;6.378;2022-10-17T09:30:43;24.20;38.10
53776;DHT22;44276;49.534;6.378;2022-10-17T09:33:17;24.10;38.00
53776;DHT22;44276;49.534;6.378;2022-10-17T09:36:11;24.20;38.00
53776;DHT22;44276;49.534;6.378;2022-10-17T09:38:44;24.40;38.20
53776;DHT22;44276;49.534;6.378;2022-10-17T09:41:18;24.50;37.20
53776;DHT22;44276;49.534;6.378;2022-10-17T09:44:14;24.10;37.80
53776;DHT22;44276;49.534;6.378;2022-10-17T09:46:55;23.70;39.40
53776;DHT22;44276;49.534;6.378;2022-10-17T09:49:34;22.90;41.90
53776;DHT22;44276;49.534;6.378;2022-10-17T09:52:11;22.20;44.50
53776;DHT22;44276;49.534;6.378;2022-10-17T09:54:44;21.80;46.70
53776;DHT22;44276;49.534;6.378;2022-10-17T09:57:16;22.40;44.70
53776;DHT22;44276;49.534;6.378;2022-10-17T09:59:46;23.50;42.30
53776;DHT22;44276;49.534;6.378;2022-10-17T10:02:23;24.10;39.20
53776;DHT22;44276;49.534;6.378;2022-10-17T10:04:57;24.50;37.90
53776;DHT22;44276;49.534;6.378;2022-10-17T10:07:35;24.90;35.80
53776;DHT22;44276;49.534;6.378;2022-10-17T10:10:07;25.30;34.60
53776;DHT22;44276;49.534;6.378;2022-10-17T10:13:05;25.30;34.10
53776;DHT22;44276;49.534;6.378;2022-10-17T10:15:44;25.30;33.80
53776;DHT22;44276;49.534;6.378;2022-10-17T10:18:28;25.70;34.10
53776;DHT22;44276;49.534;6.378;2022-10-17T10:21:18;25.30;34.20
53776;DHT22;44276;49.534;6.378;2022-10-17T10:24:03;24.50;36.00
53776;DHT22;44276;49.534;6.378;2022-10-17T10:26:39;24.50;35.90
53776;DHT22;44276;49.534;6.378;2022-10-17T10:29:21;24.70;37.00
53776;DHT22;44276;49.534;6.378;2022-10-17T10:31:54;25.10;34.80
53776;DHT22;44276;49.534;6.378;2022-10-17T10:34:27;25.60;33.20
53776;DHT22;44276;49.534;6.378;2022-10-17T10:37:01;26.00;32.90
53776;DHT22;44276;49.534;6.378;2022-10-17T10:39:44;26.10;32.00
53776;DHT22;44276;49.534;6.378;2022-10-17T10:42:22;26.20;31.80
53776;DHT22;44276;49.534;6.378;2022-10-17T10:44:57;25.90;32.30
53776;DHT22;44276;49.534;6.378;2022-10-17T10:47:29;26.20;31.00
53776;DHT22;44276;49.534;6.378;2022-10-17T10:50:30;26.20;32.30
53776;DHT22;44276;49.534;6.378;2022-10-17T10:53:21;26.50;31.40
53776;DHT22;44276;49.534;6.378;2022-10-17T10:56:04;26.30;30.50
53776;DHT22;44276;49.534;6.378;2022-10-17T10:58:45;25.80;33.10
53776;DHT22;44276;49.534;6.378;2022-10-17T11:01:26;25.40;33.60
53776;DHT22;44276;49.534;6.378;2022-10-17T11:04:26;25.10;34.90
53776;DHT22;44276;49.534;6.378;2022-10-17T11:07:00;25.00;34.40
53776;DHT22;44276;49.534;6.378;2022-10-17T11:09:43;24.70;35.90
53776;DHT22;44276;49.534;6.378;2022-10-17T11:12:19;24.80;35.50
53776;DHT22;44276;49.534;6.378;2022-10-17T11:14:56;24.80;36.50
53776;DHT22;44276;49.534;6.378;2022-10-17T11:17:35;25.40;34.60
53776;DHT22;44276;49.534;6.378;2022-10-17T11:20:14;25.90;32.80
53776;DHT22;44276;49.534;6.378;2022-10-17T11:22:51;26.30;31.80
53776;DHT22;44276;49.534;6.378;2022-10-17T11:25:33;26.50;31.80
53776;DHT22;44276;49.534;6.378;2022-10-17T11:28:09;26.40;32.20
53776;DHT22;44276;49.534;6.378;2022-10-17T11:30:45;25.90;32.70
53776;DHT22;44276;49.534;6.378;2022-10-17T11:33:26;25.90;34.10
53776;DHT22;44276;49.534;6.378;2022-10-17T11:36:02;26.70;31.60
53776;DHT22;44276;49.534;6.378;2022-10-17T11:38:42;27.10;29.90
53776;DHT22;44276;49.534;6.378;2022-10-17T11:41:19;27.50;30.10
53776;DHT22;44276;49.534;6.378;2022-10-17T11:43:56;28.00;28.70
53776;DHT22;44276;49.534;6.378;2022-10-17T11:46:27;27.80;28.20
53776;DHT22;44276;49.534;6.378;2022-10-17T11:49:09;27.90;29.40
53776;DHT22;44276;49.534;6.378;2022-10-17T11:51:51;28.20;28.30
53776;DHT22;44276;49.534;6.378;2022-10-17T11:54:32;28.00;28.30
53776;DHT22;44276;49.534;6.378;2022-10-17T11:57:34;28.30;28.20
53776;DHT22;44276;49.534;6.378;2022-10-17T12:00:32;28.30;28.30
53776;DHT22;44276;49.534;6.378;2022-10-17T12:03:31;28.20;27.80
53776;DHT22;44276;49.534;6.378;2022-10-17T12:06:16;27.90;28.70
53776;DHT22;44276;49.534;6.378;2022-10-17T12:09:02;27.60;29.40
53776;DHT22;44276;49.534;6.378;2022-10-17T12:11:44;27.20;29.40
53776;DHT22;44276;49.534;6.378;2022-10-17T12:14:41;27.30;30.00
53776;DHT22;44276;49.534;6.378;2022-10-17T12:17:36;27.10;29.10
53776;DHT22;44276;49.534;6.378;2022-10-17T12:20:30;26.60;29.90
53776;DHT22;44276;49.534;6.378;2022-10-17T12:25:54;25.50;32.90
53776;DHT22;44276;49.534;6.378;2022-10-17T12:28:31;25.40;35.40
53776;DHT22;44276;49.534;6.378;2022-10-17T12:31:20;25.00;34.90
53776;DHT22;44276;49.534;6.378;2022-10-17T12:34:01;24.50;36.10
53776;DHT22;44276;49.534;6.378;2022-10-17T12:36:39;24.20;37.80
53776;DHT22;44276;49.534;6.378;2022-10-17T12:42:50;24.10;38.90
53776;DHT22;44276;49.534;6.378;2022-10-17T12:45:49;24.30;38.00
53776;DHT22;44276;49.534;6.378;2022-10-17T12:51:27;24.30;38.90
53776;DHT22;44276;49.534;6.378;2022-10-17T12:54:08;24.50;36.50
53776;DHT22;44276;49.534;6.378;2022-10-17T12:56:41;24.50;37.10
53776;DHT22;44276;49.534;6.378;2022-10-17T12:59:15;24.30;38.30
53776;DHT22;44276;49.534;6.378;2022-10-17T13:01:46;24.20;38.40
53776;DHT22;44276;49.534;6.378;2022-10-17T13:04:18;24.00;39.90
53776;DHT22;44276;49.534;6.378;2022-10-17T13:06:50;23.90;40.10
53776;DHT22;44276;49.534;6.378;2022-10-17T13:09:25;23.70;39.30
53776;DHT22;44276;49.534;6.378;2022-10-17T13:11:57;23.50;40.50
53776;DHT22;44276;49.534;6.378;2022-10-17T13:14:28;23.50;41.80
53776;DHT22;44276;49.534;6.378;2022-10-17T13:17:01;23.60;40.90
53776;DHT22;44276;49.534;6.378;2022-10-17T13:19:40;23.60;40.80
53776;DHT22;44276;49.534;6.378;2022-10-17T13:22:14;23.80;41.40
53776;DHT22;44276;49.534;6.378;2022-10-17T13:24:45;24.10;40.50
53776;DHT22;44276;49.534;6.378;2022-10-17T13:27:25;24.70;38.10
53776;DHT22;44276;49.534;6.378;2022-10-17T13:29:56;25.20;37.70
53776;DHT22;44276;49.534;6.378;2022-10-17T13:32:34;25.30;37.30
53776;DHT22;44276;49.534;6.378;2022-10-17T13:35:07;25.40;37.40
53776;DHT22;44276;49.534;6.378;2022-10-17T13:37:38;25.30;37.50
53776;DHT22;44276;49.534;6.378;2022-10-17T13:40:15;25.00;38.00
53776;DHT22;44276;49.534;6.378;2022-10-17T13:43:12;25.10;38.70
53776;DHT22;44276;49.534;6.378;2022-10-17T13:45:45;25.40;37.60
53776;DHT22;44276;49.534;6.378;2022-10-17T13:48:19;25.30;38.30
53776;DHT22;44276;49.534;6.378;2022-10-17T13:50:52;25.10;38.80
53776;DHT22;44276;49.534;6.378;2022-10-17T13:53:30;25.10;38.90
53776;DHT22;44276;49.534;6.378;2022-10-17T13:56:01;25.60;37.50
53776;DHT22;44276;49.534;6.378;2022-10-17T13:58:52;26.10;34.40
53776;DHT22;44276;49.534;6.378;2022-10-17T14:01:24;26.30;33.20
53776;DHT22;44276;49.534;6.378;2022-10-17T14:03:54;26.20;34.80
53776;DHT22;44276;49.534;6.378;2022-10-17T14:06:40;25.90;34.70
53776;DHT22;44276;49.534;6.378;2022-10-17T14:09:19;25.20;37.30
53776;DHT22;44276;49.534;6.378;2022-10-17T14:11:57;24.70;38.00
53776;DHT22;44276;49.534;6.378;2022-10-17T14:14:27;24.40;38.90
53776;DHT22;44276;49.534;6.378;2022-10-17T14:17:21;24.30;39.80
53776;DHT22;44276;49.534;6.378;2022-10-17T14:19:55;24.40;39.30
53776;DHT22;44276;49.534;6.378;2022-10-17T14:22:50;24.50;39.60
53776;DHT22;44276;49.534;6.378;2022-10-17T14:25:39;24.50;40.20
53776;DHT22;44276;49.534;6.378;2022-10-17T14:28:13;24.30;40.20
53776;DHT22;44276;49.534;6.378;2022-10-17T14:30:45;24.20;41.20
53776;DHT22;44276;49.534;6.378;2022-10-17T14:33:26;24.00;42.20
53776;DHT22;44276;49.534;6.378;2022-10-17T14:35:58;23.80;43.80
53776;DHT22;44276;49.534;6.378;2022-10-17T14:38:29;23.80;43.70
53776;DHT22;44276;49.534;6.378;2022-10-17T14:41:00;23.70;44.30
53776;DHT22;44276;49.534;6.378;2022-10-17T14:43:52;23.60;45.30
53776;DHT22;44276;49.534;6.378;2022-10-17T14:46:23;23.50;45.80
53776;DHT22;44276;49.534;6.378;2022-10-17T14:48:54;23.30;46.80
53776;DHT22;44276;49.534;6.378;2022-10-17T14:51:25;23.30;48.20
53776;DHT22;44276;49.534;6.378;2022-10-17T14:54:18;23.10;47.70
53776;DHT22;44276;49.534;6.378;2022-10-17T14:56:52;22.80;49.80
53776;DHT22;44276;49.534;6.378;2022-10-17T14:59:21;22.60;52.80
53776;DHT22;44276;49.534;6.378;2022-10-17T15:02:12;22.40;55.90
53776;DHT22;44276;49.534;6.378;2022-10-17T15:04:40;22.20;61.60
53776;DHT22;44276;49.534;6.378;2022-10-17T15:07:12;22.00;62.60
53776;DHT22;44276;49.534;6.378;2022-10-17T15:09:44;21.90;64.30
53776;DHT22;44276;49.534;6.378;2022-10-17T15:12:16;21.70;74.60
53776;DHT22;44276;49.534;6.378;2022-10-17T15:14:46;21.60;78.00
53776;DHT22;44276;49.534;6.378;2022-10-17T15:17:16;21.40;78.10
53776;DHT22;44276;49.534;6.378;2022-10-17T15:19:47;21.30;84.70
53776;DHT22;44276;49.534;6.378;2022-10-17T15:22:16;21.20;86.60
53776;DHT22;44276;49.534;6.378;2022-10-17T15:24:46;21.20;87.80
53776;DHT22;44276;49.534;6.378;2022-10-17T15:27:16;21.20;90.20
53776;DHT22;44276;49.534;6.378;2022-10-17T15:29:46;21.20;90.00
53776;DHT22;44276;49.534;6.378;2022-10-17T15:32:15;21.10;90.80
53776;DHT22;44276;49.534;6.378;2022-10-17T15:34:44;21.00;93.10
53776;DHT22;44276;49.534;6.378;2022-10-17T15:37:16;20.90;94.90
53776;DHT22;44276;49.534;6.378;2022-10-17T15:39:49;20.90;99.20
53776;DHT22;44276;49.534;6.378;2022-10-17T15:42:21;20.90;99.90
53776;DHT22;44276;49.534;6.378;2022-10-17T15:44:53;20.80;99.90
53776;DHT22;44276;49.534;6.378;2022-10-17T15:47:23;20.70;99.90
53776;DHT22;44276;49.534;6.378;2022-10-17T15:49:54;20.60;99.90
53776;DHT22;44276;49.534;6.378;2022-10-17T15:52:23;20.60;99.90
53776;DHT22;44276;49.534;6.378;2022-10-17T15:54:53;20.60;99.90
53776;DHT22;44276;49.534;6.378;2022-10-17T15:57:28;20.60;99.90
53776;DHT22;44276;49.534;6.378;2022-10-17T15:59:58;20.60;99.90
53776;DHT22;44276;49.534;6.378;2022-10-17T16:02:27;20.50;99.90
53776;DHT22;44276;49.534;6.378;2022-10-17T16:04:55;20.50;99.90
53776;DHT22;44276;49.534;6.378;2022-10-17T16:07:24;20.50;99.90
53776;DHT22;44276;49.534;6.378;2022-10-17T16:09:54;20.40;99.90
53776;DHT22;44276;49.534;6.378;2022-10-17T16:12:26;20.40;99.90
53776;DHT22;44276;49.534;6.378;2022-10-17T16:14:56;20.30;99.90
53776;DHT22;44276;49.534;6.378;2022-10-17T16:17:25;20.30;99.90
53776;DHT22;44276;49.534;6.378;2022-10-17T16:19:53;20.10;99.90
53776;DHT22;44276;49.534;6.378;2022-10-17T16:22:25;20.00;99.90
53776;DHT22;44276;49.534;6.378;2022-10-17T16:24:59;19.80;99.90